< < Back
Terminal Aerodrome Forecast


Current Version              Previous Versions:   1  2  3  4  5  6  7  8  9  

Terminal Aerodrome Forecast

544
FTUS44 KMOB 242300
TAFPNS
TAF
KPNS 242326Z 2500/2524 35003KT P6SM SKC
     FM251500 01007KT P6SM SKC=

Latest METAR

704
SAUS70 KWBC 251800 RRM
MTRPNS
METAR KPNS 251753Z 02008KT 10SM CLR 24/09 A3006 RMK AO2 SLP182 T02390094
10244 20117 58017


USA.gov is the U.S. government's official web portal to all federal, state and local government web resources and services.